Time;durP1;ratioP1;P1;durP2;ratioP2;P2;SDS_P1;SDS_P2;PMS_P1;PMS_P2;Temp;Humidity;BMP_temperature;BMP_pressure;BME280_temperature;BME280_humidity;BME280_pressure;Samples;Min_cycle;Max_cycle;Signal;HPM_P1;HPM_P2
2023/07/03 00:00:16;;;;;;;;;;;;;;;18.49;42.28;100086.06;4861827;29;6932;-74
2023/07/03 00:02:43;;;;;;;;;;;;;;;18.45;42.74;100087.78;4844535;29;13630;-74
2023/07/03 00:05:10;;;;;;;;;;;;;;;18.42;42.36;100087.75;4841904;29;6941;-74
2023/07/03 00:07:39;;;;;;;;;;;;;;;18.40;42.74;100086.84;4858648;29;6796;-74
2023/07/03 00:10:06;;;;;;;;;;;;;;;18.37;42.86;100091.13;4846525;29;6896;-75
2023/07/03 00:12:32;;;;;;;;;;;;;;;18.33;43.05;100085.03;4860844;29;6776;-74
2023/07/03 00:14:57;;;;;;;;;;;;;;;18.33;43.25;100085.03;4859854;29;6831;-74
2023/07/03 00:17:23;;;;;;;;;;;;;;;18.31;42.88;100089.34;4846884;29;7033;-75
2023/07/03 00:19:49;;;;;;;;;;;;;;;18.31;43.35;100097.13;4847203;29;6808;-74
2023/07/03 00:22:14;;;;;;;;;;;;;;;18.26;43.40;100084.13;4844364;29;7132;-75
2023/07/03 00:24:40;;;;;;;;;;;;;;;18.25;43.34;100084.09;4844509;29;6848;-74
2023/07/03 00:27:06;;;;;;;;;;;;;;;18.24;43.31;100092.72;4847597;29;6769;-76
2023/07/03 00:29:33;;;;;;;;;;;;;;;18.22;43.34;100089.25;4846275;29;6849;-75
2023/07/03 00:32:00;;;;;;;;;;;;;;;18.21;43.96;100090.09;4851632;29;6974;-75
2023/07/03 00:34:27;;;;;;;;;;;;;;;18.20;44.23;100088.38;4860005;29;7238;-74
2023/07/03 00:36:54;;;;;;;;;;;;;;;18.17;43.99;100089.19;4842194;29;6785;-74
2023/07/03 00:39:20;;;;;;;;;;;;;;;18.15;44.07;100091.75;4857641;29;6980;-74
2023/07/03 00:41:46;;;;;;;;;;;;;;;18.12;44.25;100081.34;4848791;29;6986;-75
2023/07/03 00:44:15;;;;;;;;;;;;;;;18.11;44.11;100084.81;4829252;29;7238;-74
2023/07/03 00:46:45;;;;;;;;;;;;;;;18.11;44.54;100084.81;4845898;29;8061;-75
2023/07/03 00:49:11;;;;;;;;;;;;;;;18.12;44.90;100083.94;4845394;29;7368;-74
2023/07/03 00:51:42;;;;;;;;;;;;;;;18.13;45.25;100082.25;4844026;29;6877;-74
2023/07/03 00:54:08;;;;;;;;;;;;;;;18.14;44.77;100079.66;4857538;29;6825;-74
2023/07/03 00:56:34;;;;;;;;;;;;;;;18.12;44.69;100076.16;4852281;29;7087;-75
2023/07/03 00:59:02;;;;;;;;;;;;;;;18.12;44.81;100085.69;4861119;29;7107;-75
2023/07/03 01:01:57;;;;;;;;;;;;;;;18.10;45.21;100075.28;4843136;29;7167;-75
2023/07/03 01:04:34;;;;;;;;;;;;;;;18.07;44.83;100067.47;4860150;29;7194;-74
2023/07/03 01:07:09;;;;;;;;;;;;;;;18.08;45.25;100077.00;4857213;29;6796;-74
2023/07/03 01:09:51;;;;;;;;;;;;;;;18.10;45.67;100071.81;4855412;29;6813;-74
2023/07/03 01:12:21;;;;;;;;;;;;;;;18.11;45.44;100071.84;4862502;29;6805;-75
2023/07/03 01:14:49;;;;;;;;;;;;;;;18.16;45.20;100067.59;4828264;29;6968;-74
2023/07/03 01:17:17;;;;;;;;;;;;;;;18.20;45.69;100070.22;4860126;29;6824;-74
2023/07/03 01:19:47;;;;;;;;;;;;;;;18.23;46.02;100073.72;4866699;29;6805;-75
2023/07/03 01:22:30;;;;;;;;;;;;;;;18.26;45.79;100067.69;4861436;29;6969;-75
2023/07/03 01:25:11;;;;;;;;;;;;;;;18.28;45.94;100069.44;4850717;29;7275;-75
2023/07/03 01:27:45;;;;;;;;;;;;;;;18.31;45.70;100074.66;4842937;29;7008;-75
2023/07/03 01:30:16;;;;;;;;;;;;;;;18.30;45.39;100061.69;4843299;29;7110;-74
2023/07/03 01:32:49;;;;;;;;;;;;;;;18.31;45.91;100061.69;4861876;29;7390;-74
2023/07/03 01:35:17;;;;;;;;;;;;;;;18.35;45.86;100060.00;4842758;29;6825;-75
2023/07/03 01:37:47;;;;;;;;;;;;;;;18.38;45.51;100057.44;4840051;29;7386;-74
2023/07/03 01:40:19;;;;;;;;;;;;;;;18.42;45.73;100055.75;4844239;29;6808;-74
2023/07/03 01:42:47;;;;;;;;;;;;;;;18.43;45.53;100055.75;4843972;29;6984;-75
2023/07/03 01:45:13;;;;;;;;;;;;;;;18.44;46.19;100044.50;4867321;29;6953;-74
2023/07/03 01:47:39;;;;;;;;;;;;;;;18.48;46.10;100052.34;4857034;29;6972;-74
2023/07/03 01:50:14;;;;;;;;;;;;;;;18.50;45.92;100056.72;4843628;29;7200;-74
2023/07/03 01:52:54;;;;;;;;;;;;;;;18.54;45.69;100047.19;4859143;29;6821;-75
2023/07/03 01:55:23;;;;;;;;;;;;;;;18.56;45.96;100050.69;4838748;29;7055;-74
2023/07/03 01:58:04;;;;;;;;;;;;;;;18.59;45.64;100042.94;4837955;29;6898;-74
2023/07/03 02:00:55;;;;;;;;;;;;;;;18.64;46.13;100048.16;4843167;29;6809;-75
2023/07/03 02:03:51;;;;;;;;;;;;;;;18.65;45.65;100040.41;4858677;29;7024;-75
2023/07/03 02:06:28;;;;;;;;;;;;;;;18.69;45.80;100042.16;4842787;29;6833;-75
2023/07/03 02:08:55;;;;;;;;;;;;;;;18.71;45.76;100050.81;4836895;29;6938;-74
2023/07/03 02:11:22;;;;;;;;;;;;;;;18.76;46.13;100044.81;4841219;29;6857;-75
2023/07/03 02:13:49;;;;;;;;;;;;;;;18.77;45.67;100050.00;4843690;29;6820;-75
2023/07/03 02:16:15;;;;;;;;;;;;;;;18.80;46.10;100054.34;4860060;29;6777;-75
2023/07/03 02:18:46;;;;;;;;;;;;;;;18.82;46.39;100047.44;4842212;29;6781;-74
2023/07/03 02:21:13;;;;;;;;;;;;;;;18.84;45.99;100038.81;4862872;29;6989;-75
2023/07/03 02:23:41;;;;;;;;;;;;;;;18.86;46.25;100050.09;4857018;29;6825;-75
2023/07/03 02:26:07;;;;;;;;;;;;;;;18.88;46.22;100047.50;4843384;29;6861;-75
2023/07/03 02:28:32;;;;;;;;;;;;;;;18.88;45.96;100044.91;4844203;29;7064;-75
2023/07/03 02:30:59;;;;;;;;;;;;;;;18.89;45.97;100044.06;4821107;29;6985;-74
2023/07/03 02:33:25;;;;;;;;;;;;;;;18.90;46.32;100043.19;4832313;29;7284;-75
2023/07/03 02:35:50;;;;;;;;;;;;;;;18.89;46.17;100049.25;4824578;29;6962;-74
2023/07/03 02:38:16;;;;;;;;;;;;;;;18.92;46.64;100038.03;4824258;29;7011;-74
2023/07/03 02:40:42;;;;;;;;;;;;;;;18.91;45.93;100037.13;4830121;29;7080;-74
2023/07/03 02:43:08;;;;;;;;;;;;;;;18.90;46.65;100032.81;4856984;29;7110;-75
2023/07/03 02:45:40;;;;;;;;;;;;;;;18.90;46.31;100035.41;4858351;29;6784;-73
2023/07/03 02:48:08;;;;;;;;;;;;;;;18.91;46.20;100031.09;4847334;29;6976;-74
2023/07/03 02:50:35;;;;;;;;;;;;;;;18.90;46.54;100031.97;4864544;29;7163;-75
2023/07/03 02:53:00;;;;;;;;;;;;;;;18.89;46.65;100036.25;4813470;29;7055;-75
2023/07/03 02:55:26;;;;;;;;;;;;;;;18.90;46.87;100040.59;4847659;29;6801;-75
2023/07/03 02:57:54;;;;;;;;;;;;;;;18.91;46.49;100036.28;4863345;29;6836;-75
2023/07/03 03:00:20;;;;;;;;;;;;;;;18.90;46.77;100032.81;4826645;29;6801;-74
2023/07/03 03:02:47;;;;;;;;;;;;;;;18.89;46.65;100033.66;4840660;29;6781;-74
2023/07/03 03:05:13;;;;;;;;;;;;;;;18.87;47.11;100036.25;4842801;29;6933;-74
2023/07/03 03:07:39;;;;;;;;;;;;;;;18.84;46.96;100030.19;4833369;29;6977;-74
2023/07/03 03:10:06;;;;;;;;;;;;;;;18.80;47.26;100026.69;4843440;29;6785;-74
2023/07/03 03:12:31;;;;;;;;;;;;;;;18.77;46.98;100031.84;4843799;29;7107;-74
2023/07/03 03:14:57;;;;;;;;;;;;;;;18.75;47.66;100030.97;4839360;29;6812;-75
2023/07/03 03:17:22;;;;;;;;;;;;;;;18.73;47.63;100023.19;4846298;29;6794;-74
2023/07/03 03:19:48;;;;;;;;;;;;;;;18.71;47.54;100030.06;4842647;29;6837;-74
2023/07/03 03:22:14;;;;;;;;;;;;;;;18.71;47.89;100022.28;4833447;29;6776;-75
2023/07/03 03:24:39;;;;;;;;;;;;;;;18.70;47.62;100020.53;4841671;29;6764;-75
2023/07/03 03:27:06;;;;;;;;;;;;;;;18.70;48.54;100020.53;4852224;29;6944;-75
2023/07/03 03:29:38;;;;;;;;;;;;;;;18.71;48.38;100021.41;4845399;29;6839;-75
2023/07/03 03:32:05;;;;;;;;;;;;;;;18.71;48.41;100024.00;4831451;29;7014;-74
2023/07/03 03:34:34;;;;;;;;;;;;;;;18.72;48.81;100028.34;4838480;29;6988;-75
2023/07/03 03:37:02;;;;;;;;;;;;;;;18.72;48.54;100023.16;4832880;29;7235;-75
2023/07/03 03:39:28;;;;;;;;;;;;;;;18.72;48.44;100021.41;4822606;29;6984;-74
2023/07/03 03:41:53;;;;;;;;;;;;;;;18.73;48.84;100018.00;4846736;29;6860;-74
2023/07/03 03:44:19;;;;;;;;;;;;;;;18.74;49.06;100024.91;4862148;29;7032;-74
2023/07/03 03:46:45;;;;;;;;;;;;;;;18.77;49.43;100021.44;4843772;29;8715;-74
2023/07/03 03:49:10;;;;;;;;;;;;;;;18.80;48.66;100018.00;4859167;29;6901;-74
2023/07/03 03:51:36;;;;;;;;;;;;;;;18.83;48.63;100018.91;4841375;29;6777;-74
2023/07/03 03:54:03;;;;;;;;;;;;;;;18.85;49.16;100021.53;4843166;29;6812;-74
2023/07/03 03:56:29;;;;;;;;;;;;;;;18.88;49.38;100024.16;4859052;29;6859;-75
2023/07/03 03:58:55;;;;;;;;;;;;;;;18.91;49.42;100015.50;4840465;29;7303;-75
2023/07/03 04:01:20;;;;;;;;;;;;;;;18.94;49.60;100013.81;4835578;29;6845;-74
2023/07/03 04:03:46;;;;;;;;;;;;;;;18.98;49.39;100018.16;4835523;29;6943;-75
2023/07/03 04:06:16;;;;;;;;;;;;;;;19.02;49.39;100016.50;4852505;29;7014;-74
2023/07/03 04:08:42;;;;;;;;;;;;;;;19.06;49.95;100019.97;4835845;29;6797;-75
2023/07/03 04:11:08;;;;;;;;;;;;;;;19.06;49.36;100020.84;4838023;29;7025;-76
2023/07/03 04:13:34;;;;;;;;;;;;;;;19.08;49.23;100024.34;4840219;29;6832;-74
2023/07/03 04:16:02;;;;;;;;;;;;;;;19.11;49.92;100015.69;4853013;29;6937;-74
2023/07/03 04:18:29;;;;;;;;;;;;;;;19.12;49.63;100025.19;4862071;29;8333;-75
2023/07/03 04:20:55;;;;;;;;;;;;;;;19.11;49.38;100026.06;4841248;29;6945;-74
2023/07/03 04:23:21;;;;;;;;;;;;;;;19.11;49.50;100018.28;4840040;29;7982;-75
2023/07/03 04:25:48;;;;;;;;;;;;;;;19.13;49.64;100022.63;4840959;29;6793;-74
2023/07/03 04:28:17;;;;;;;;;;;;;;;19.17;49.92;100022.63;4858396;29;6804;-75
2023/07/03 04:30:43;;;;;;;;;;;;;;;19.19;49.30;100026.13;4860386;29;7167;-75
2023/07/03 04:33:08;;;;;;;;;;;;;;;19.20;49.53;100022.69;4858120;29;6856;-75
2023/07/03 04:35:36;;;;;;;;;;;;;;;19.23;49.41;100023.56;4841199;29;7479;-73
2023/07/03 04:38:02;;;;;;;;;;;;;;;19.26;49.66;100026.19;4859339;29;6812;-75
2023/07/03 04:40:28;;;;;;;;;;;;;;;19.31;49.66;100018.41;4848095;29;7054;-74
2023/07/03 04:42:54;;;;;;;;;;;;;;;19.36;49.83;100023.63;4839687;29;6792;-75
2023/07/03 04:45:21;;;;;;;;;;;;;;;19.38;50.01;100015.00;4846965;29;7255;-75
2023/07/03 04:47:50;;;;;;;;;;;;;;;19.40;49.89;100023.66;4841583;29;6937;-75
2023/07/03 04:50:17;;;;;;;;;;;;;;;19.43;49.75;100030.59;4859710;29;6789;-75
2023/07/03 04:52:45;;;;;;;;;;;;;;;19.48;50.08;100026.28;4858540;29;7215;-74
2023/07/03 04:55:12;;;;;;;;;;;;;;;19.55;49.84;100032.38;4848467;29;6876;-75
2023/07/03 04:57:39;;;;;;;;;;;;;;;19.60;50.06;100030.69;4843735;29;7228;-75
2023/07/03 05:00:14;;;;;;;;;;;;;;;19.63;49.46;100035.91;4826583;29;7490;-75
2023/07/03 05:02:48;;;;;;;;;;;;;;;19.68;49.35;100035.91;4851384;29;13893;-74
2023/07/03 05:05:16;;;;;;;;;;;;;;;19.71;49.75;100033.34;4847108;29;6807;-76
2023/07/03 05:07:44;;;;;;;;;;;;;;;19.74;49.70;100030.75;4842269;29;7089;-76
2023/07/03 05:10:13;;;;;;;;;;;;;;;19.76;49.76;100041.16;4828668;29;7064;-74
2023/07/03 05:12:39;;;;;;;;;;;;;;;19.78;49.46;100037.69;4842599;29;6987;-75
2023/07/03 05:15:09;;;;;;;;;;;;;;;19.80;49.60;100041.19;4841695;29;6781;-74
2023/07/03 05:17:38;;;;;;;;;;;;;;;19.82;49.45;100041.19;4841308;29;7249;-75
2023/07/03 05:20:16;;;;;;;;;;;;;;;19.84;49.39;100045.53;4857350;29;6874;-75
2023/07/03 05:22:44;;;;;;;;;;;;;;;19.89;49.73;100052.47;4840099;29;6824;-75
2023/07/03 05:25:13;;;;;;;;;;;;;;;19.93;49.18;100056.84;4859898;29;7164;-75
2023/07/03 05:27:39;;;;;;;;;;;;;;;19.98;49.12;100050.81;4845914;29;6828;-75
2023/07/03 05:30:07;;;;;;;;;;;;;;;20.02;49.21;100054.31;4844983;29;7216;-74
2023/07/03 05:32:33;;;;;;;;;;;;;;;20.08;49.21;100058.66;4848347;29;7047;-75
2023/07/03 05:35:01;;;;;;;;;;;;;;;20.12;49.13;100063.00;4843536;29;6793;-74
2023/07/03 05:37:27;;;;;;;;;;;;;;;20.14;49.20;100063.00;4859335;29;6805;-76
2023/07/03 05:39:53;;;;;;;;;;;;;;;20.14;49.07;100065.59;4840799;29;6792;-74
2023/07/03 05:42:20;;;;;;;;;;;;;;;20.16;49.23;100069.06;4842453;29;6816;-75
2023/07/03 05:44:46;;;;;;;;;;;;;;;20.19;48.95;100074.31;4843433;29;7105;-76
2023/07/03 05:47:13;;;;;;;;;;;;;;;20.22;49.35;100066.50;4844081;29;6972;-74
2023/07/03 05:49:39;;;;;;;;;;;;;;;20.28;49.30;100071.75;4828836;29;6989;-75
2023/07/03 05:52:06;;;;;;;;;;;;;;;20.35;49.08;100072.63;4843686;29;6777;-76
2023/07/03 05:54:32;;;;;;;;;;;;;;;20.44;48.99;100063.94;4854547;29;7019;-75
2023/07/03 05:57:09;;;;;;;;;;;;;;;20.58;49.14;100075.28;4859225;29;6832;-75
2023/07/03 05:59:37;;;;;;;;;;;;;;;20.69;49.30;100080.47;4842616;29;7080;-75
2023/07/03 06:02:07;;;;;;;;;;;;;;;20.79;49.38;100074.41;4846927;29;6861;-75
2023/07/03 06:04:33;;;;;;;;;;;;;;;20.91;48.93;100076.19;4843352;29;6793;-74
2023/07/03 06:06:59;;;;;;;;;;;;;;;21.03;48.81;100071.84;4842881;29;6969;-73
2023/07/03 06:09:27;;;;;;;;;;;;;;;21.12;48.81;100063.16;4825244;29;6988;-72
2023/07/03 06:11:53;;;;;;;;;;;;;;;21.23;48.67;100074.44;4863004;29;6788;-73
2023/07/03 06:14:19;;;;;;;;;;;;;;;21.32;48.64;100081.34;4864209;29;7942;-73
2023/07/03 06:16:48;;;;;;;;;;;;;;;21.43;48.61;100078.75;4842812;29;6785;-73
2023/07/03 06:19:16;;;;;;;;;;;;;;;21.53;48.25;100079.56;4858871;29;7620;-72
2023/07/03 06:21:43;;;;;;;;;;;;;;;21.61;48.18;100067.41;4826486;29;7021;-73
2023/07/03 06:24:11;;;;;;;;;;;;;;;21.70;47.79;100076.97;4842664;29;6796;-73
2023/07/03 06:26:39;;;;;;;;;;;;;;;21.73;47.54;100067.41;4843894;29;6797;-73
2023/07/03 06:29:10;;;;;;;;;;;;;;;21.77;47.63;100068.25;4845347;29;6821;-73
2023/07/03 06:31:36;;;;;;;;;;;;;;;21.83;47.70;100083.03;4847630;29;7237;-73
2023/07/03 06:34:03;;;;;;;;;;;;;;;21.94;47.42;100076.03;4860037;29;6868;-72
2023/07/03 06:36:32;;;;;;;;;;;;;;;22.02;47.19;100076.84;4844218;29;6797;-73
2023/07/03 06:38:59;;;;;;;;;;;;;;;22.14;47.50;100075.06;4839632;29;6788;-73
2023/07/03 06:41:31;;;;;;;;;;;;;;;22.24;46.93;100068.03;4844011;29;7098;-73
2023/07/03 06:43:57;;;;;;;;;;;;;;;22.29;46.44;100068.88;4862920;29;6801;-73
2023/07/03 06:46:24;;;;;;;;;;;;;;;22.36;46.74;100075.81;4858325;29;6785;-73
2023/07/03 06:48:50;;;;;;;;;;;;;;;22.43;46.69;100076.66;4837914;29;7966;-74
2023/07/03 06:51:15;;;;;;;;;;;;;;;22.48;46.55;100083.56;4842453;29;7267;-74
2023/07/03 06:53:41;;;;;;;;;;;;;;;22.60;46.20;100077.44;4842893;29;7041;-73
2023/07/03 06:56:08;;;;;;;;;;;;;;;22.76;46.16;100066.84;4842064;29;6840;-74
2023/07/03 06:58:35;;;;;;;;;;;;;;;22.96;46.10;100069.31;4844397;29;6793;-74
2023/07/03 07:01:11;;;;;;;;;;;;;;;23.20;45.54;100076.97;4843098;29;7773;-74
2023/07/03 07:03:38;;;;;;;;;;;;;;;23.32;45.37;100082.09;4842876;29;7301;-74
2023/07/03 07:06:21;;;;;;;;;;;;;;;23.41;44.85;100082.00;4842044;29;7202;-74
2023/07/03 07:08:47;;;;;;;;;;;;;;;23.44;44.30;100074.13;4842878;29;6797;-74
2023/07/03 07:11:22;;;;;;;;;;;;;;;23.53;44.28;100067.94;4843456;29;6777;-74
2023/07/03 07:13:50;;;;;;;;;;;;;;;23.80;44.15;100078.09;4844586;29;7141;-73
2023/07/03 07:16:31;;;;;;;;;;;;;;;24.14;44.09;100069.81;4837762;29;8977;-74
2023/07/03 07:19:00;;;;;;;;;;;;;;;24.57;43.62;100077.97;4841211;29;7012;-73
2023/07/03 07:21:31;;;;;;;;;;;;;;;24.93;42.24;100075.69;4844096;29;6830;-74
2023/07/03 07:24:01;;;;;;;;;;;;;;;25.07;41.68;100073.69;4841094;29;7061;-73
2023/07/03 07:26:34;;;;;;;;;;;;;;;25.26;41.13;100085.63;4862245;29;6824;-73
2023/07/03 07:29:00;;;;;;;;;;;;;;;25.39;40.95;100079.25;4844762;29;7093;-74
2023/07/03 07:31:28;;;;;;;;;;;;;;;25.49;40.32;100077.31;4824521;29;6991;-74
2023/07/03 07:33:54;;;;;;;;;;;;;;;25.57;39.74;100083.31;4840676;29;7116;-73
2023/07/03 07:36:23;;;;;;;;;;;;;;;25.65;39.36;100078.78;4829807;29;6862;-73
2023/07/03 07:38:50;;;;;;;;;;;;;;;25.87;39.58;100083.56;4846709;29;7181;-73
2023/07/03 07:41:16;;;;;;;;;;;;;;;26.10;38.94;100078.75;4826589;29;6853;-71
2023/07/03 07:43:41;;;;;;;;;;;;;;;26.29;38.25;100077.47;4843312;29;6864;-71
2023/07/03 07:46:07;;;;;;;;;;;;;;;26.53;37.84;100082.19;4842121;29;6804;-71
2023/07/03 07:48:33;;;;;;;;;;;;;;;26.83;37.87;100084.97;4859646;29;6848;-71
2023/07/03 07:50:59;;;;;;;;;;;;;;;27.20;36.99;100077.97;4843755;29;6785;-71
2023/07/03 07:53:29;;;;;;;;;;;;;;;27.44;36.14;100072.03;4839517;29;7203;-72
2023/07/03 07:55:58;;;;;;;;;;;;;;;27.54;34.82;100066.50;4857827;29;7179;-72
2023/07/03 07:58:24;;;;;;;;;;;;;;;27.74;34.79;100073.91;4843223;29;6805;-72
2023/07/03 08:00:53;;;;;;;;;;;;;;;27.97;34.88;100080.25;4843558;29;6776;-72
2023/07/03 08:03:18;;;;;;;;;;;;;;;28.18;34.55;100072.59;4842565;29;6797;-72
2023/07/03 08:05:44;;;;;;;;;;;;;;;28.38;33.78;100078.13;4842454;29;6995;-72
2023/07/03 08:08:10;;;;;;;;;;;;;;;28.53;33.13;100073.31;4837150;29;6981;-71
2023/07/03 08:10:35;;;;;;;;;;;;;;;28.66;32.92;100079.91;4842904;29;8011;-72
2023/07/03 08:13:01;;;;;;;;;;;;;;;28.72;32.25;100077.97;4862292;29;6935;-71
2023/07/03 08:15:27;;;;;;;;;;;;;;;28.61;32.21;100073.06;4848452;29;6865;-72
2023/07/03 08:17:53;;;;;;;;;;;;;;;28.25;31.31;100075.06;4848306;29;6781;-72
2023/07/03 08:20:19;;;;;;;;;;;;;;;27.69;31.61;100091.56;4860841;29;6789;-71
2023/07/03 08:22:44;;;;;;;;;;;;;;;27.12;32.34;100097.44;4824006;29;6966;-71
2023/07/03 08:25:10;;;;;;;;;;;;;;;26.61;32.79;100089.03;4841890;29;6852;-71
2023/07/03 08:27:36;;;;;;;;;;;;;;;26.23;33.19;100095.13;4860274;29;7132;-71
2023/07/03 08:30:05;;;;;;;;;;;;;;;25.95;33.50;100108.81;4846117;29;8792;-71
2023/07/03 08:32:30;;;;;;;;;;;;;;;25.82;33.77;100101.19;4858510;29;7252;-72
2023/07/03 08:34:56;;;;;;;;;;;;;;;25.82;34.03;100103.81;4859887;29;6769;-72
2023/07/03 08:37:22;;;;;;;;;;;;;;;25.95;34.38;100112.31;4840724;29;7310;-74
2023/07/03 08:39:47;;;;;;;;;;;;;;;26.06;33.79;100115.56;4844249;29;6852;-71
2023/07/03 08:42:31;;;;;;;;;;;;;;;26.08;33.67;100118.19;4858184;29;6793;-72
2023/07/03 08:44:59;;;;;;;;;;;;;;;26.05;33.26;100118.22;4847121;29;6809;-72
2023/07/03 08:47:30;;;;;;;;;;;;;;;25.98;33.03;100121.88;4858949;29;7088;-71
2023/07/03 08:50:02;;;;;;;;;;;;;;;25.90;33.32;100124.66;4850322;29;6876;-72
2023/07/03 08:52:57;;;;;;;;;;;;;;;25.80;33.45;100116.13;4840599;29;7107;-71
2023/07/03 08:55:31;;;;;;;;;;;;;;;25.72;33.33;100123.28;4840753;29;6817;-71
2023/07/03 08:57:57;;;;;;;;;;;;;;;25.64;33.17;100124.28;4843930;29;7202;-71
2023/07/03 09:00:22;;;;;;;;;;;;;;;25.56;33.39;100123.56;4846070;29;7364;-71
2023/07/03 09:03:18;;;;;;;;;;;;;;;25.49;33.45;100125.41;4858197;29;6773;-71
2023/07/03 09:06:18;;;;;;;;;;;;;;;25.45;34.20;100134.22;4845805;29;6919;-71
2023/07/03 09:09:34;;;;;;;;;;;;;;;25.44;34.15;100134.25;4862895;29;7011;-72
2023/07/03 09:12:36;;;;;;;;;;;;;;;25.31;33.38;100130.97;4858704;29;6804;-72
2023/07/03 09:15:45;;;;;;;;;;;;;;;25.10;33.67;100133.06;4847695;29;7081;-71
2023/07/03 09:18:17;;;;;;;;;;;;;;;24.94;34.09;100137.72;4846687;29;6910;-71
2023/07/03 09:20:43;;;;;;;;;;;;;;;24.84;33.82;100136.13;4845274;29;7649;-73
2023/07/03 09:23:59;;;;;;;;;;;;;;;24.69;33.96;100135.41;4843770;29;6793;-71
2023/07/03 09:26:38;;;;;;;;;;;;;;;24.52;34.27;100135.66;4845950;29;6805;-72
2023/07/03 09:29:05;;;;;;;;;;;;;;;24.33;35.02;100140.28;4858800;29;6872;-71
2023/07/03 09:31:31;;;;;;;;;;;;;;;24.17;34.77;100143.09;4837044;29;7001;-71
2023/07/03 09:33:57;;;;;;;;;;;;;;;24.02;35.07;100148.47;4840008;29;6940;-71
2023/07/03 09:36:30;;;;;;;;;;;;;;;23.91;35.10;100149.47;4859375;29;6817;-71
2023/07/03 09:38:56;;;;;;;;;;;;;;;23.82;35.83;100154.81;4840913;29;6793;-72
2023/07/03 09:41:29;;;;;;;;;;;;;;;23.77;36.07;100156.63;4861325;29;6781;-71
2023/07/03 09:43:55;;;;;;;;;;;;;;;23.76;36.15;100153.13;4859080;29;7250;-72
2023/07/03 09:46:23;;;;;;;;;;;;;;;23.83;36.18;100151.31;4843259;29;7058;-71
2023/07/03 09:48:50;;;;;;;;;;;;;;;24.00;36.86;100145.91;4856554;29;6819;-71
2023/07/03 09:51:19;;;;;;;;;;;;;;;24.26;36.69;100145.59;4840475;29;7048;-72
2023/07/03 09:53:44;;;;;;;;;;;;;;;24.63;36.70;100148.63;4845388;29;6796;-71
2023/07/03 09:56:20;;;;;;;;;;;;;;;25.05;36.78;100135.78;4828478;29;7094;-72
2023/07/03 09:58:50;;;;;;;;;;;;;;;25.88;36.94;100123.81;4856335;29;6817;-71
2023/07/03 10:01:24;;;;;;;;;;;;;;;27.05;35.93;100127.41;4847194;29;7285;-72
2023/07/03 10:04:14;;;;;;;;;;;;;;;28.06;34.25;100121.28;4862567;29;6829;-72
2023/07/03 10:06:59;;;;;;;;;;;;;;;28.37;33.28;100099.28;4843084;29;6957;-72
2023/07/03 10:09:31;;;;;;;;;;;;;;;28.22;32.36;100119.06;4863121;29;6881;-72
2023/07/03 10:12:09;;;;;;;;;;;;;;;27.82;32.50;100118.41;4848030;29;8529;-71
2023/07/03 10:14:47;;;;;;;;;;;;;;;27.35;32.56;100134.59;4844054;29;6804;-71
2023/07/03 10:17:15;;;;;;;;;;;;;;;26.83;32.56;100134.94;4843857;29;6829;-72
2023/07/03 10:19:51;;;;;;;;;;;;;;;26.38;33.06;100130.69;4840360;29;8808;-72
2023/07/03 10:22:18;;;;;;;;;;;;;;;26.07;33.58;100140.06;4844048;29;7443;-72
2023/07/03 10:24:47;;;;;;;;;;;;;;;25.83;34.16;100150.16;4843788;29;6798;-71
2023/07/03 10:27:19;;;;;;;;;;;;;;;25.63;34.20;100161.91;4844745;29;6808;-71
2023/07/03 10:29:53;;;;;;;;;;;;;;;25.55;35.11;100150.69;4843586;29;6801;-74
2023/07/03 10:32:20;;;;;;;;;;;;;;;25.73;35.29;100152.09;4860261;29;6805;-75
2023/07/03 10:35:22;;;;;;;;;;;;;;;26.15;35.25;100132.88;4840864;29;6801;-73
2023/07/03 10:38:11;;;;;;;;;;;;;;;26.57;34.59;100128.53;4838606;29;6829;-73
2023/07/03 10:40:57;;;;;;;;;;;;;;;26.89;34.06;100133.03;4843170;29;7323;-73
2023/07/03 10:43:30;;;;;;;;;;;;;;;27.18;33.51;100135.88;4844309;29;6868;-73
2023/07/03 10:45:59;;;;;;;;;;;;;;;27.48;33.50;100130.72;4858694;29;6960;-73
2023/07/03 10:48:32;;;;;;;;;;;;;;;27.80;32.68;100130.78;4846405;29;7004;-73
2023/07/03 10:51:20;;;;;;;;;;;;;;;27.86;32.26;100130.56;4843794;29;7051;-72
2023/07/03 10:54:02;;;;;;;;;;;;;;;27.75;31.94;100128.25;4860765;29;7039;-72
2023/07/03 10:56:44;;;;;;;;;;;;;;;27.63;31.64;100128.63;4844540;29;6801;-72
2023/07/03 10:59:26;;;;;;;;;;;;;;;27.49;31.36;100142.97;4844558;29;6801;-72
2023/07/03 11:02:15;;;;;;;;;;;;;;;27.51;31.61;100127.97;4841195;29;6817;-72
2023/07/03 11:05:11;;;;;;;;;;;;;;;27.93;32.09;100131.28;4843453;29;6999;-73
2023/07/03 11:07:58;;;;;;;;;;;;;;;28.79;30.75;100122.53;4846127;29;6985;-73
2023/07/03 11:10:43;;;;;;;;;;;;;;;29.48;30.20;100118.56;4846188;29;6976;-73
2023/07/03 11:13:27;;;;;;;;;;;;;;;30.20;28.96;100110.66;4827621;29;7169;-73
2023/07/03 11:16:11;;;;;;;;;;;;;;;30.93;28.64;100109.59;4866849;29;6804;-73
2023/07/03 11:19:00;;;;;;;;;;;;;;;31.72;27.65;100111.50;4846607;29;6884;-73
2023/07/03 11:21:47;;;;;;;;;;;;;;;32.40;27.03;100103.13;4850361;29;6956;-73
2023/07/03 11:24:24;;;;;;;;;;;;;;;32.95;26.67;100103.97;4858246;29;6804;-73
2023/07/03 11:27:18;;;;;;;;;;;;;;;33.47;26.01;100106.72;4854491;29;6843;-73
2023/07/03 11:29:44;;;;;;;;;;;;;;;33.97;25.72;100102.25;4846448;29;6828;-73
2023/07/03 11:32:10;;;;;;;;;;;;;;;34.18;24.85;100099.38;4840776;29;6812;-73
2023/07/03 11:34:37;;;;;;;;;;;;;;;33.72;24.51;100095.63;4859897;29;6974;-73
2023/07/03 11:37:58;;;;;;;;;;;;;;;32.72;24.87;100113.06;4852377;29;6821;-73
2023/07/03 11:40:39;;;;;;;;;;;;;;;31.48;25.36;100124.03;4846058;29;6808;-73
2023/07/03 11:43:33;;;;;;;;;;;;;;;30.57;26.57;100119.78;4848332;29;6977;-73
2023/07/03 11:45:58;;;;;;;;;;;;;;;30.20;27.61;100114.19;4846807;29;7003;-73
2023/07/03 11:48:49;;;;;;;;;;;;;;;30.48;27.74;100120.16;4847386;29;6912;-73
2023/07/03 11:51:37;;;;;;;;;;;;;;;31.27;27.36;100100.22;4864285;29;6820;-73
2023/07/03 11:54:20;;;;;;;;;;;;;;;31.97;26.42;100105.97;4839895;29;6809;-73
2023/07/03 11:56:54;;;;;;;;;;;;;;;32.57;25.97;100098.75;4837380;29;7557;-73
2023/07/03 11:59:22;;;;;;;;;;;;;;;33.09;25.12;100102.44;4858338;29;6816;-73
2023/07/03 12:01:49;;;;;;;;;;;;;;;33.34;24.83;100096.72;4872429;29;6996;-73
2023/07/03 12:04:44;;;;;;;;;;;;;;;33.71;24.46;100095.72;4850636;29;7264;-73
2023/07/03 12:07:30;;;;;;;;;;;;;;;34.01;23.77;100105.63;4848189;29;6827;-73
2023/07/03 12:10:17;;;;;;;;;;;;;;;34.09;23.58;100098.06;4845885;29;6785;-73
2023/07/03 12:12:50;;;;;;;;;;;;;;;33.71;23.57;100123.13;4843317;29;6789;-73
2023/07/03 12:15:17;;;;;;;;;;;;;;;33.09;23.03;100116.56;4874621;29;7014;-73
2023/07/03 12:17:43;;;;;;;;;;;;;;;32.60;23.42;100111.03;4853000;29;6813;-73
2023/07/03 12:20:11;;;;;;;;;;;;;;;32.52;23.77;100114.06;4862689;29;6780;-73
2023/07/03 12:22:49;;;;;;;;;;;;;;;32.38;23.26;100112.91;4850059;29;6808;-72
2023/07/03 12:25:26;;;;;;;;;;;;;;;31.83;23.69;100116.34;4870331;29;6820;-72
2023/07/03 12:27:54;;;;;;;;;;;;;;;31.40;24.21;100105.84;4847991;29;6949;-73
2023/07/03 12:30:24;;;;;;;;;;;;;;;31.05;24.78;100114.34;4845810;29;6925;-73
2023/07/03 12:32:53;;;;;;;;;;;;;;;30.58;25.04;100123.31;4859556;29;6781;-73
2023/07/03 12:35:31;;;;;;;;;;;;;;;30.28;25.15;100116.53;4863548;29;7204;-73
2023/07/03 12:38:04;;;;;;;;;;;;;;;30.49;25.37;100117.47;4854601;29;6992;-73
2023/07/03 12:40:30;;;;;;;;;;;;;;;30.99;25.97;100098.72;4863461;29;6796;-71
2023/07/03 12:42:57;;;;;;;;;;;;;;;31.56;25.31;100116.63;4847313;29;6788;-71
2023/07/03 12:45:27;;;;;;;;;;;;;;;31.80;24.75;100113.81;4877020;29;6869;-72
2023/07/03 12:48:04;;;;;;;;;;;;;;;31.72;24.83;100112.38;4853142;29;6861;-71
2023/07/03 12:50:34;;;;;;;;;;;;;;;31.97;24.65;100105.09;4852563;29;7055;-71
2023/07/03 12:53:04;;;;;;;;;;;;;;;32.41;24.53;100096.00;4846567;29;6817;-72
2023/07/03 12:55:36;;;;;;;;;;;;;;;32.89;24.00;100098.09;4851475;29;6864;-72
2023/07/03 12:58:04;;;;;;;;;;;;;;;33.24;23.67;100098.13;4845397;29;6868;-72
2023/07/03 13:00:33;;;;;;;;;;;;;;;33.63;23.40;100094.31;4855182;29;7035;-72
2023/07/03 13:03:05;;;;;;;;;;;;;;;33.79;22.87;100081.06;4845080;29;6988;-74
2023/07/03 13:05:35;;;;;;;;;;;;;;;33.41;22.75;100099.03;4824449;29;7419;-71
2023/07/03 13:08:06;;;;;;;;;;;;;;;33.20;23.31;100096.56;4844309;29;6864;-71